Time;durP1;ratioP1;P1;durP2;ratioP2;P2;SDS_P1;SDS_P2;PMS_P1;PMS_P2;Temp;Humidity;BMP_temperature;BMP_pressure;BME280_temperature;BME280_humidity;BME280_pressure;Samples;Min_cycle;Max_cycle;Signal;HPM_P1;HPM_P2
2023/08/29 00:00:32;;;;;;;3.72;2.72;;;16.30;99.90;;;16.53;100.00;100535.44;5244452;28;20544;-48
2023/08/29 00:03:05;;;;;;;4.50;2.70;;;16.20;99.90;;;16.49;100.00;100534.53;5244022;28;20059;-48
2023/08/29 00:05:38;;;;;;;3.55;2.80;;;16.20;99.90;;;16.45;100.00;100532.78;5244001;28;20052;-49
2023/08/29 00:08:10;;;;;;;4.80;2.83;;;16.20;99.90;;;16.43;100.00;100530.97;5244087;28;20051;-49
2023/08/29 00:10:43;;;;;;;4.38;3.20;;;16.20;99.90;;;16.40;100.00;100537.13;5243914;28;20052;-47
2023/08/29 00:13:16;;;;;;;4.80;2.90;;;16.10;99.90;;;16.38;100.00;100535.34;5245375;28;20044;-49
2023/08/29 00:15:53;;;;;;;4.03;2.85;;;16.10;99.90;;;16.36;100.00;100531.81;5243842;28;20075;-48
2023/08/29 00:18:25;;;;;;;4.43;3.05;;;16.10;99.90;;;16.33;100.00;100516.03;5244015;28;20036;-48
2023/08/29 00:20:57;;;;;;;4.85;3.45;;;16.00;99.90;;;16.31;100.00;100533.56;5243737;28;20506;-49
2023/08/29 00:23:30;;;;;;;3.78;3.15;;;16.00;99.90;;;16.26;100.00;100531.75;5243720;28;20060;-47
2023/08/29 00:26:03;;;;;;;4.25;2.97;;;16.00;99.90;;;16.25;100.00;100531.75;5243535;28;20049;-48
2023/08/29 00:28:35;;;;;;;4.00;3.10;;;16.00;99.90;;;16.24;100.00;100533.50;5244018;28;20044;-48
2023/08/29 00:31:09;;;;;;;4.18;2.85;;;16.00;99.90;;;16.28;100.00;100542.28;5243541;28;20052;-48
2023/08/29 00:33:41;;;;;;;3.28;2.78;;;16.00;99.90;;;16.33;100.00;100540.56;5243540;28;20572;-48
2023/08/29 00:36:13;;;;;;;4.05;2.60;;;16.10;99.90;;;16.38;100.00;100543.25;5243545;28;20052;-49
2023/08/29 00:38:46;;;;;;;3.67;2.75;;;16.10;99.90;;;16.41;100.00;100538.00;5243508;28;20064;-48
2023/08/29 00:41:20;;;;;;;3.53;2.65;;;16.10;99.90;;;16.44;100.00;100523.13;5243481;28;20041;-48
2023/08/29 00:43:55;;;;;;;4.32;3.15;;;16.10;99.90;;;16.46;100.00;100517.88;5243106;28;20056;-48
2023/08/29 00:46:29;;;;;;;5.32;3.22;;;16.10;99.90;;;16.43;100.00;100513.47;5243291;28;20052;-48
2023/08/29 00:49:02;;;;;;;4.22;3.42;;;16.10;99.90;;;16.40;100.00;100515.19;5243164;28;20052;-48
2023/08/29 00:51:34;;;;;;;4.40;3.20;;;16.10;99.90;;;16.39;100.00;100524.84;5243657;28;20581;-48
2023/08/29 00:54:08;;;;;;;4.70;3.30;;;16.10;99.90;;;16.37;100.00;100516.06;5243165;28;20056;-48
2023/08/29 00:56:40;;;;;;;5.00;3.28;;;16.10;99.90;;;16.36;100.00;100524.81;5243288;28;20045;-49
2023/08/29 00:59:13;;;;;;;4.90;3.60;;;16.10;99.90;;;16.34;100.00;100537.06;5242994;28;20040;-49
2023/08/29 01:01:49;;;;;;;3.70;2.92;;;16.10;99.90;;;16.34;100.00;100537.06;5242684;28;20045;-49
2023/08/29 01:04:21;;;;;;;;;;;16.10;99.90;;;16.37;100.00;100533.59;5243523;28;20045;-48
2023/08/29 01:06:55;;;;;;;4.57;3.10;;;16.10;99.90;;;16.39;100.00;100551.16;5243014;28;19947;-48
2023/08/29 01:09:27;;;;;;;3.25;2.90;;;16.10;99.90;;;16.41;100.00;100554.66;5242679;28;20101;-48
2023/08/29 01:12:12;;;;;;;4.90;3.17;;;16.10;99.90;;;16.42;100.00;100555.53;5242706;28;20075;-48
2023/08/29 01:14:52;;;;;;;3.78;2.90;;;16.10;99.90;;;16.42;100.00;100552.91;5243158;28;20051;-48
2023/08/29 01:17:33;;;;;;;3.67;3.08;;;16.10;99.90;;;16.41;100.00;100552.03;5243141;28;20044;-47
2023/08/29 01:20:06;;;;;;;;;;;16.10;99.90;;;16.39;100.00;100551.16;5243656;28;20049;-48
2023/08/29 01:22:51;;;;;;;4.72;3.03;;;16.10;99.90;;;16.37;100.00;100555.53;5242817;28;19920;-49
2023/08/29 01:25:32;;;;;;;5.32;3.10;;;16.10;99.90;;;16.35;100.00;100562.50;5243230;28;20498;-49
2023/08/29 01:28:07;;;;;;;4.00;3.15;;;16.10;99.90;;;16.36;100.00;100571.28;5242884;28;20052;-47
2023/08/29 01:30:41;;;;;;;4.60;3.35;;;16.10;99.90;;;16.37;100.00;100578.31;5243031;28;20094;-48
2023/08/29 01:33:14;;;;;;;5.00;3.35;;;16.10;99.90;;;16.40;100.00;100575.69;5242922;28;20066;-47
2023/08/29 01:35:49;;;;;;;4.93;3.40;;;16.10;99.90;;;16.40;100.00;100581.84;5242790;28;20049;-48
2023/08/29 01:38:21;;;;;;;4.05;3.08;;;16.10;99.90;;;16.41;100.00;100591.50;5242125;28;20052;-48
2023/08/29 01:40:54;;;;;;;6.13;3.22;;;16.10;99.90;;;16.41;100.00;100594.13;5242806;28;20052;-48
2023/08/29 01:43:28;;;;;;;4.88;3.33;;;16.20;99.90;;;16.43;100.00;100595.03;5226001;28;20573;-50
2023/08/29 01:46:03;;;;;;;4.72;3.40;;;16.10;99.90;;;16.44;100.00;100588.91;5242398;28;20146;-47
2023/08/29 01:48:36;;;;;;;4.18;3.05;;;16.20;99.90;;;16.45;100.00;100598.53;5242966;28;20513;-49
2023/08/29 01:51:08;;;;;;;4.45;3.25;;;16.20;99.90;;;16.46;100.00;100595.03;5242593;28;20044;-49
2023/08/29 01:53:42;;;;;;;3.88;3.08;;;16.20;99.90;;;16.46;100.00;100597.66;5242297;28;20411;-48
2023/08/29 01:56:16;;;;;;;4.85;3.20;;;16.20;99.90;;;16.46;100.00;100605.56;5242547;28;20071;-48
2023/08/29 01:58:53;;;;;;;4.05;3.17;;;16.20;99.90;;;16.45;100.00;100603.81;5242460;28;20051;-47
2023/08/29 02:01:26;;;;;;;4.57;3.25;;;16.20;99.90;;;16.43;100.00;100605.56;5242532;28;20231;-48
2023/08/29 02:04:01;;;;;;;4.28;3.15;;;16.20;99.90;;;16.42;100.00;100603.75;5242307;28;20032;-47
2023/08/29 02:06:34;;;;;;;6.25;3.33;;;16.10;99.90;;;16.43;100.00;100608.19;5242399;28;20044;-48
2023/08/29 02:09:06;;;;;;;3.67;3.03;;;16.20;99.90;;;16.42;100.00;100597.63;5242592;28;20426;-47
2023/08/29 02:11:41;;;;;;;4.78;3.05;;;16.20;99.90;;;16.41;100.00;100602.00;5242324;28;20207;-48
2023/08/29 02:14:18;;;;;;;4.68;3.10;;;16.20;99.90;;;16.41;100.00;100602.00;5242488;28;20049;-48
2023/08/29 02:16:50;;;;;;;4.88;2.80;;;16.20;99.90;;;16.41;100.00;100602.00;5242801;28;20052;-48
2023/08/29 02:19:26;;;;;;;5.95;3.47;;;16.10;99.90;;;16.40;100.00;100600.25;5242312;28;20041;-49
2023/08/29 02:21:58;;;;;;;4.13;3.25;;;16.10;99.90;;;16.40;100.00;100599.38;5242272;28;20501;-48
2023/08/29 02:24:31;;;;;;;4.22;3.08;;;16.10;99.90;;;16.40;100.00;100592.38;5221788;28;20717;-47
2023/08/29 02:27:04;;;;;;;5.72;3.05;;;16.10;99.90;;;16.40;100.00;100594.13;5238876;28;20045;-48
2023/08/29 02:29:38;;;;;;;4.75;3.22;;;16.10;99.90;;;16.39;100.00;100587.09;5242383;28;20122;-49
2023/08/29 02:32:17;;;;;;;4.03;2.78;;;16.10;99.90;;;16.40;100.00;100584.47;5242243;28;20132;-48
2023/08/29 02:34:50;;;;;;;4.95;2.80;;;16.10;99.90;;;16.40;100.00;100573.94;5242375;28;20048;-48
2023/08/29 02:37:22;;;;;;;3.95;2.78;;;16.10;99.90;;;16.41;100.00;100575.69;5242121;28;20455;-48
2023/08/29 02:39:57;;;;;;;4.82;2.92;;;16.10;99.90;;;16.42;100.00;100571.31;5242206;28;20468;-47
2023/08/29 02:42:29;;;;;;;4.40;3.00;;;16.20;99.90;;;16.39;100.00;100566.94;5242498;28;20055;-48
2023/08/29 02:45:04;;;;;;;5.50;3.67;;;16.10;99.90;;;16.37;100.00;100563.41;5241943;28;20056;-49
2023/08/29 02:47:36;;;;;;;5.55;3.40;;;16.10;99.90;;;16.36;100.00;100556.38;5242069;28;20044;-48
2023/08/29 02:50:10;;;;;;;6.03;3.17;;;16.10;99.90;;;16.32;100.00;100557.22;5243092;28;20139;-48
2023/08/29 02:52:43;;;;;;;4.82;3.08;;;16.10;99.90;;;16.29;100.00;100546.66;5245664;28;20053;-48
2023/08/29 02:55:15;;;;;;;4.30;3.28;;;16.00;99.90;;;16.29;100.00;100541.41;5245396;28;20094;-48
2023/08/29 02:57:47;;;;;;;4.88;3.13;;;16.00;99.90;;;16.27;100.00;100532.63;5245556;28;20049;-47
2023/08/29 03:00:21;;;;;;;5.40;3.30;;;16.00;99.90;;;16.26;100.00;100530.88;5245683;28;20505;-47
2023/08/29 03:02:54;;;;;;;5.75;3.30;;;16.00;99.90;;;16.24;100.00;100532.63;5245502;28;20063;-48
2023/08/29 03:05:26;;;;;;;5.45;3.33;;;16.00;99.90;;;16.24;100.00;100527.38;5245519;28;20717;-48
2023/08/29 03:08:00;;;;;;;6.13;3.63;;;16.00;99.90;;;16.25;100.00;100531.75;5245685;28;20422;-48
2023/08/29 03:10:36;;;;;;;4.53;2.92;;;16.00;99.90;;;16.25;100.00;100531.75;5229064;28;20040;-48
2023/08/29 03:13:09;;;;;;;6.20;3.30;;;16.00;99.90;;;16.27;100.00;100527.38;5245389;28;20444;-47
2023/08/29 03:15:43;;;;;;;5.07;3.30;;;16.00;99.90;;;16.25;100.00;100527.38;5245290;28;20040;-47
2023/08/29 03:18:15;;;;;;;5.45;3.30;;;16.00;99.90;;;16.25;100.00;100521.25;5245416;28;20075;-48
2023/08/29 03:20:48;;;;;;;3.97;2.90;;;16.00;99.90;;;16.25;100.00;100519.47;5245388;28;20053;-47
2023/08/29 03:23:24;;;;;;;4.57;3.03;;;16.00;99.90;;;16.24;100.00;100514.22;5245379;28;20344;-48
2023/08/29 03:26:05;;;;;;;5.25;3.33;;;16.00;99.90;;;16.22;100.00;100516.81;5245166;28;20044;-47
2023/08/29 03:28:38;;;;;;;5.97;3.45;;;15.90;99.90;;;16.15;100.00;100509.75;5245139;28;20048;-47
2023/08/29 03:31:13;;;;;;;4.22;3.00;;;16.00;99.90;;;16.16;100.00;100502.75;5245106;28;20044;-48
2023/08/29 03:33:46;;;;;;;4.43;2.97;;;16.00;99.90;;;16.16;100.00;100506.25;5245041;28;20044;-48
2023/08/29 03:36:21;;;;;;;4.40;3.40;;;16.00;99.90;;;16.16;100.00;100495.72;5244903;28;20445;-48
2023/08/29 03:38:54;;;;;;;4.72;3.10;;;16.00;99.90;;;16.15;100.00;100507.13;5245047;28;20413;-48
2023/08/29 03:41:26;;;;;;;4.75;3.28;;;15.90;99.90;;;16.13;100.00;100508.88;5244518;28;20050;-47
2023/08/29 03:44:03;;;;;;;4.15;3.05;;;15.90;99.90;;;16.11;100.00;100508.00;5244522;28;20425;-48
2023/08/29 03:46:37;;;;;;;4.75;3.10;;;15.90;99.90;;;16.08;100.00;100509.69;5236565;28;20048;-48
2023/08/29 03:49:09;;;;;;;3.55;2.67;;;15.80;99.90;;;16.06;100.00;100506.19;5244499;28;20040;-47
2023/08/29 03:51:42;;;;;;;4.20;3.10;;;15.80;99.90;;;16.05;100.00;100496.53;5244415;28;20135;-48
2023/08/29 03:54:17;;;;;;;3.90;2.80;;;15.80;99.90;;;16.05;100.00;100501.81;5244404;28;20501;-48
2023/08/29 03:56:50;;;;;;;4.32;2.85;;;15.80;99.90;;;16.02;100.00;100506.16;5244890;28;20056;-48
2023/08/29 03:59:22;;;;;;;4.70;2.95;;;15.80;99.90;;;16.00;100.00;100500.00;5244598;28;20139;-47
2023/08/29 04:01:56;;;;;;;5.78;3.30;;;15.80;99.90;;;15.96;100.00;100506.09;5244162;28;20075;-47
2023/08/29 04:04:29;;;;;;;4.05;3.10;;;15.70;99.90;;;15.95;100.00;100513.97;5243929;28;20047;-49
2023/08/29 04:07:01;;;;;;;4.85;3.20;;;15.70;99.90;;;15.96;100.00;100524.50;5244096;28;20532;-48
2023/08/29 04:09:33;;;;;;;3.50;2.60;;;15.70;99.90;;;15.98;100.00;100522.78;5244180;28;20052;-47
2023/08/29 04:12:08;;;;;;;5.38;3.17;;;15.70;99.90;;;15.98;100.00;100527.16;5244000;28;20527;-48
2023/08/29 04:14:40;;;;;;;5.00;3.00;;;15.70;99.90;;;15.98;100.00;100525.41;5244037;28;20139;-48
2023/08/29 04:17:14;;;;;;;4.40;3.00;;;15.80;99.90;;;16.00;100.00;100525.41;5243847;28;20058;-50
2023/08/29 04:19:47;;;;;;;5.07;3.30;;;15.80;99.90;;;15.96;100.00;100524.50;5245505;28;20789;-47
2023/08/29 04:22:20;;;;;;;3.67;2.72;;;15.70;99.90;;;15.94;100.00;100520.09;5243872;28;20105;-48
2023/08/29 04:24:52;;;;;;;4.57;2.90;;;15.70;99.90;;;15.91;100.00;100528.84;5244012;28;20070;-48
2023/08/29 04:27:25;;;;;;;5.13;3.13;;;15.70;99.90;;;15.89;100.00;100532.31;5243666;28;20056;-49
2023/08/29 04:29:58;;;;;;;4.05;2.97;;;15.70;99.90;;;15.88;100.00;100520.94;5243865;28;20056;-49
2023/08/29 04:32:36;;;;;;;4.75;3.10;;;15.70;99.90;;;15.86;100.00;100522.69;5243498;28;20129;-48
2023/08/29 04:35:10;;;;;;;4.93;3.38;;;15.60;99.90;;;15.85;100.00;100513.03;5243264;28;20045;-47
2023/08/29 04:37:46;;;;;;;4.53;3.10;;;15.60;99.90;;;15.84;100.00;100511.25;5243352;28;20521;-47
2023/08/29 04:40:21;;;;;;;4.45;3.08;;;15.60;99.90;;;15.83;100.00;100506.84;5243120;28;20048;-47
2023/08/29 04:42:53;;;;;;;6.00;3.35;;;15.60;99.90;;;15.83;100.00;100512.13;5243149;28;20052;-48
2023/08/29 04:45:26;;;;;;;4.30;2.90;;;15.60;99.90;;;15.82;100.00;100509.47;5243174;28;20049;-47
2023/08/29 04:48:00;;;;;;;5.32;3.08;;;15.60;99.90;;;15.80;100.00;100512.09;5243147;28;20045;-48
2023/08/29 04:50:32;;;;;;;5.05;3.03;;;15.50;99.90;;;15.78;100.00;100511.22;5243096;28;20055;-48
2023/08/29 04:53:06;;;;;;;5.03;3.47;;;15.60;99.90;;;15.77;100.00;100508.56;5243142;28;20048;-48
2023/08/29 04:55:39;;;;;;;5.20;3.42;;;15.50;99.90;;;15.75;100.00;100503.28;5242784;28;20387;-49
2023/08/29 04:58:11;;;;;;;5.47;3.30;;;15.50;99.90;;;15.75;100.00;100508.53;5243243;28;20135;-49
2023/08/29 05:00:43;;;;;;;5.15;3.17;;;15.50;99.90;;;15.74;100.00;100506.78;5242896;28;20463;-47
2023/08/29 05:03:18;;;;;;;5.65;4.05;;;15.50;99.90;;;15.79;100.00;100512.09;5242705;28;20036;-47
2023/08/29 05:05:51;;;;;;;4.93;3.03;;;15.50;99.90;;;15.74;100.00;100527.81;5242731;28;20088;-48
2023/08/29 05:08:24;;;;;;;4.47;3.20;;;15.50;99.90;;;15.72;100.00;100524.31;5242895;28;20048;-48
2023/08/29 05:10:57;;;;;;;4.90;3.30;;;15.60;99.90;;;15.71;100.00;100527.75;5242880;28;20050;-48
2023/08/29 05:13:29;;;;;;;5.03;3.20;;;15.60;99.90;;;15.75;100.00;100524.31;5241798;28;20098;-47
2023/08/29 05:16:03;;;;;;;4.28;3.10;;;15.60;99.90;;;15.79;100.00;100526.13;5242315;28;20049;-48
2023/08/29 05:18:37;;;;;;;4.85;2.90;;;15.60;99.90;;;15.82;100.00;100531.38;5242692;28;20701;-48
2023/08/29 05:21:09;;;;;;;5.35;3.55;;;15.60;99.90;;;15.84;100.00;100534.91;5243140;28;20045;-46
2023/08/29 05:23:42;;;;;;;5.55;3.08;;;15.60;99.90;;;15.86;100.00;100527.94;5242743;28;20417;-47
2023/08/29 05:26:17;;;;;;;6.20;3.60;;;15.60;99.90;;;15.89;100.00;100517.44;5242867;28;20059;-48
2023/08/29 05:28:50;;;;;;;4.60;3.22;;;15.60;99.90;;;15.91;100.00;100515.72;5242769;28;20071;-47
2023/08/29 05:31:22;;;;;;;4.78;3.28;;;15.70;99.90;;;15.92;100.00;100525.34;5242762;28;20059;-47
2023/08/29 05:33:56;;;;;;;5.85;3.25;;;15.70;99.90;;;15.95;100.00;100525.38;5242326;28;20056;-46
2023/08/29 05:36:28;;;;;;;5.80;3.20;;;15.70;99.90;;;15.96;100.00;100524.50;5242828;28;20368;-46
2023/08/29 05:39:01;;;;;;;4.47;3.28;;;15.70;99.90;;;15.97;100.00;100528.00;5242684;28;20040;-47
2023/08/29 05:41:33;;;;;;;5.07;3.33;;;15.70;99.90;;;15.98;100.00;100522.78;5242176;28;20049;-49
2023/08/29 05:44:06;;;;;;;5.63;3.22;;;15.80;99.90;;;16.01;100.00;100528.06;5226085;28;20044;-48
2023/08/29 05:46:38;;;;;;;5.60;3.65;;;15.70;99.90;;;16.07;100.00;100526.34;5221635;28;20502;-46
2023/08/29 05:49:12;;;;;;;5.07;3.30;;;15.80;99.90;;;16.08;100.00;100530.72;5242642;28;20048;-49
2023/08/29 05:51:45;;;;;;;5.53;3.30;;;15.80;99.90;;;16.11;100.00;100528.16;5221348;28;20141;-48
2023/08/29 05:54:17;;;;;;;6.25;3.78;;;15.80;99.90;;;16.16;100.00;100529.03;5228947;28;20462;-48
2023/08/29 05:56:49;;;;;;;6.00;3.33;;;15.90;99.90;;;16.19;100.00;100535.22;5228613;28;20056;-50
2023/08/29 05:59:22;;;;;;;5.22;3.38;;;15.90;99.90;;;16.23;100.00;100533.47;5228592;28;20395;-51
2023/08/29 06:01:54;;;;;;;6.70;3.65;;;16.00;99.90;;;16.27;100.00;100536.16;5225569;28;20444;-51
2023/08/29 06:04:32;;;;;;;4.57;2.95;;;16.00;99.90;;;16.28;100.00;100537.03;5225071;28;20037;-50
2023/08/29 06:07:06;;;;;;;6.43;3.35;;;16.00;99.90;;;16.34;100.00;100539.69;5241037;28;20059;-50
2023/08/29 06:09:38;;;;;;;4.55;3.20;;;16.10;99.90;;;16.38;100.00;100525.72;5229128;28;20140;-50
2023/08/29 06:12:10;;;;;;;5.40;3.38;;;16.10;99.90;;;16.43;100.00;100534.53;5228635;28;20148;-49
2023/08/29 06:14:43;;;;;;;6.53;3.60;;;16.20;99.90;;;16.47;100.00;100530.16;5239640;28;20136;-50
2023/08/29 06:17:15;;;;;;;6.63;3.92;;;16.20;99.90;;;16.50;100.00;100527.56;5224432;28;20044;-49
2023/08/29 06:19:49;;;;;;;6.78;3.63;;;16.20;99.90;;;16.54;100.00;100527.56;5250958;28;20119;-54
2023/08/29 06:22:25;;;;;;;6.05;3.72;;;16.40;99.90;;;16.61;100.00;100535.50;5229029;28;20410;-50
2023/08/29 06:24:58;;;;;;;6.00;3.63;;;16.30;99.90;;;16.67;100.00;100536.41;5223320;28;20506;-51
2023/08/29 06:27:30;;;;;;;6.65;3.72;;;16.40;99.90;;;16.72;100.00;100536.47;5224380;28;20583;-50
2023/08/29 06:30:03;;;;;;;5.75;3.72;;;16.50;99.90;;;16.76;100.00;100538.28;5239423;28;20064;-51
2023/08/29 06:32:36;;;;;;;7.75;4.55;;;16.50;99.90;;;16.77;100.00;100538.28;5234597;28;20064;-50
2023/08/29 06:35:11;;;;;;;8.90;4.28;;;16.50;99.90;;;16.79;100.00;100536.53;5232630;28;20052;-52
2023/08/29 06:37:43;;;;;;;8.93;4.65;;;16.50;99.90;;;16.81;100.00;100541.78;5241025;28;20394;-50
2023/08/29 06:40:16;;;;;;;7.53;4.60;;;16.60;99.90;;;16.84;100.00;100539.19;5224939;28;20107;-50
2023/08/29 06:42:48;;;;;;;7.43;4.57;;;16.50;99.90;;;16.87;100.00;100539.19;5228673;28;20118;-50
2023/08/29 06:45:21;;;;;;;14.90;7.45;;;16.60;99.90;;;16.86;100.00;100547.97;5227823;28;20041;-53
2023/08/29 06:47:53;;;;;;;12.70;6.03;;;16.60;99.90;;;16.83;100.00;100547.97;5232972;28;20045;-50
2023/08/29 06:50:27;;;;;;;10.63;5.90;;;16.60;99.90;;;16.85;100.00;100540.06;5234001;28;20509;-50
2023/08/29 06:52:59;;;;;;;7.90;4.88;;;16.60;99.90;;;16.87;100.00;100549.72;5241702;28;20048;-50
2023/08/29 06:55:34;;;;;;;6.38;3.70;;;16.60;99.90;;;17.12;100.00;100545.44;5227711;28;20037;-52
2023/08/29 06:58:06;;;;;;;;;;;16.80;99.90;;;17.45;100.00;100541.16;5238114;28;20045;-54
2023/08/29 07:00:38;;;;;;;13.18;5.60;;;17.20;99.90;;;17.73;100.00;100540.38;5235988;28;19920;-53
2023/08/29 07:03:11;;;;;;;14.57;6.55;;;17.50;99.90;;;17.92;100.00;100540.41;5237731;28;20448;-55
2023/08/29 07:05:45;;;;;;;14.80;7.20;;;17.70;99.90;;;18.05;100.00;100540.41;5191838;28;20045;-53
2023/08/29 07:08:17;;;;;;;16.52;7.47;;;17.90;99.90;;;18.17;100.00;100535.13;5221036;28;106619;-55
2023/08/29 07:10:49;;;;;;;16.73;7.90;;;18.00;99.90;;;18.26;100.00;100536.03;5238375;28;20045;-54
2023/08/29 07:13:22;;;;;;;18.58;8.82;;;18.10;99.90;;;18.29;100.00;100536.03;5240224;28;20036;-53
2023/08/29 07:15:54;;;;;;;17.25;8.50;;;18.10;99.90;;;18.37;100.00;100537.75;5240101;28;20045;-52
2023/08/29 07:18:27;;;;;;;18.25;8.02;;;18.20;99.90;;;18.49;100.00;100539.50;5224195;28;20049;-53
2023/08/29 07:21:01;;;;;;;17.75;9.23;;;18.30;99.90;;;18.56;100.00;100540.38;5236099;28;20044;-53
2023/08/29 07:23:33;;;;;;;18.55;9.02;;;18.30;99.90;;;18.61;100.00;100534.22;5243755;28;20582;-53
2023/08/29 07:26:05;;;;;;;16.80;8.35;;;18.50;99.90;;;18.69;100.00;100529.81;5235760;28;20117;-52
2023/08/29 07:28:38;;;;;;;20.30;9.27;;;18.50;99.90;;;18.77;100.00;100539.47;5228258;28;20052;-56
2023/08/29 07:31:10;;;;;;;18.58;9.38;;;18.60;99.90;;;18.84;100.00;100539.44;5232232;28;20433;-53
2023/08/29 07:33:43;;;;;;;18.98;8.75;;;18.70;99.90;;;18.92;100.00;100544.75;5232305;28;20057;-53
2023/08/29 07:36:16;;;;;;;17.00;9.23;;;18.70;99.90;;;18.97;100.00;100543.84;5235699;28;20078;-53
2023/08/29 07:38:49;;;;;;;20.83;9.30;;;18.80;99.90;;;19.01;100.00;100539.41;5246476;28;20142;-53
2023/08/29 07:41:21;;;;;;;14.55;8.48;;;18.80;99.90;;;19.07;100.00;100538.50;5219890;28;20052;-54
2023/08/29 07:43:53;;;;;;;15.60;8.98;;;18.80;99.90;;;19.12;100.00;100539.38;5227714;28;20457;-54
2023/08/29 07:46:26;;;;;;;16.95;8.57;;;18.90;99.90;;;19.13;100.00;100543.78;5239431;28;20044;-54
2023/08/29 07:48:59;;;;;;;16.33;8.40;;;18.90;99.90;;;19.14;100.00;100541.13;5232253;28;20040;-53
2023/08/29 07:51:33;;;;;;;15.85;8.65;;;18.90;99.90;;;19.19;100.00;100549.03;5239689;28;20044;-53
2023/08/29 07:54:06;;;;;;;16.52;9.27;;;19.00;99.90;;;19.16;100.00;100544.63;5232511;28;20044;-54
2023/08/29 07:56:38;;;;;;;15.07;9.00;;;18.90;99.90;;;19.16;100.00;100549.03;5236706;28;20068;-53
2023/08/29 07:59:10;;;;;;;18.52;8.13;;;18.90;99.90;;;19.15;100.00;100552.56;5240574;28;20045;-56
2023/08/29 08:01:43;;;;;;;15.90;9.07;;;18.90;99.90;;;19.11;100.00;100554.34;5222010;28;20052;-54
2023/08/29 08:04:16;;;;;;;14.73;8.63;;;18.90;99.90;;;19.10;100.00;100560.50;5226111;28;20045;-52
2023/08/29 08:06:49;;;;;;;16.38;9.13;;;18.90;99.90;;;19.11;100.00;100556.13;5220460;28;20118;-54
2023/08/29 08:09:22;;;;;;;16.05;9.70;;;18.80;99.90;;;19.06;100.00;100558.78;5232288;28;20041;-54
2023/08/29 08:11:54;;;;;;;14.88;8.75;;;18.80;99.90;;;19.10;100.00;100554.34;5228468;28;20410;-53
2023/08/29 08:14:29;;;;;;;15.10;8.68;;;18.80;99.90;;;19.13;100.00;100560.50;5227355;28;20544;-55
2023/08/29 08:17:02;;;;;;;14.10;8.40;;;18.80;99.90;;;19.11;100.00;100557.00;5231096;28;20037;-55
2023/08/29 08:19:34;;;;;;;16.02;8.40;;;18.80;99.90;;;19.14;100.00;100558.72;5223469;28;20045;-53
2023/08/29 08:22:09;;;;;;;16.17;9.00;;;18.90;99.90;;;19.15;100.00;100564.00;5229516;28;20049;-53
2023/08/29 08:24:44;;;;;;;16.85;9.70;;;18.90;99.90;;;19.17;100.00;100562.25;5236454;28;20045;-52
2023/08/29 08:27:18;;;;;;;14.35;8.25;;;18.90;99.90;;;19.21;100.00;100568.38;5222114;28;20045;-53
2023/08/29 08:29:51;;;;;;;16.85;9.52;;;18.90;99.90;;;19.23;100.00;100572.81;5238030;28;20052;-53
2023/08/29 08:32:23;;;;;;;16.15;9.38;;;19.00;99.90;;;19.25;100.00;100573.66;5230059;28;20041;-54
2023/08/29 08:34:59;;;;;;;17.00;9.43;;;19.00;99.90;;;19.23;100.00;100575.44;5232210;28;20036;-53
2023/08/29 08:37:34;;;;;;;19.92;10.32;;;19.00;99.90;;;19.27;100.00;100575.41;5234668;28;20048;-53
2023/08/29 08:40:09;;;;;;;15.88;9.32;;;19.00;99.90;;;19.32;100.00;100581.56;5234680;28;20131;-55
2023/08/29 08:42:41;;;;;;;18.23;10.25;;;19.00;99.90;;;19.35;100.00;100574.47;5233048;28;20058;-53
2023/08/29 08:45:15;;;;;;;17.65;9.73;;;19.00;99.90;;;19.39;100.00;100573.59;5238212;28;20041;-54
2023/08/29 08:47:47;;;;;;;18.75;10.10;;;19.10;99.90;;;19.40;100.00;100579.75;5238438;28;20063;-53
2023/08/29 08:50:20;;;;;;;16.45;9.13;;;19.10;99.90;;;19.38;100.00;100577.13;5232870;28;20383;-53
2023/08/29 08:52:57;;;;;;;17.45;9.10;;;19.10;99.90;;;19.36;100.00;100572.72;5226275;28;20044;-52
2023/08/29 08:55:29;;;;;;;16.27;9.43;;;19.10;99.90;;;19.40;100.00;100571.84;5225166;28;20123;-55
2023/08/29 08:58:03;;;;;;;14.65;8.75;;;19.00;99.90;;;19.42;100.00;100573.56;5229891;28;20059;-54
2023/08/29 09:00:35;;;;;;;19.35;10.38;;;19.10;99.90;;;19.46;100.00;100574.44;5237103;28;20484;-52
2023/08/29 09:03:08;;;;;;;15.60;9.23;;;19.10;99.90;;;19.44;100.00;100576.22;5232583;28;20048;-55
2023/08/29 09:05:42;;;;;;;16.10;8.98;;;19.10;99.90;;;19.49;100.00;100574.41;5238714;28;20040;-54
2023/08/29 09:08:16;;;;;;;16.77;10.15;;;19.10;99.90;;;19.51;100.00;100577.94;5229135;28;20502;-53
2023/08/29 09:10:53;;;;;;;14.32;8.45;;;19.10;99.90;;;19.55;100.00;100579.69;5231838;28;20068;-52
2023/08/29 09:13:26;;;;;;;13.45;7.95;;;19.10;99.90;;;19.60;100.00;100587.63;5240572;28;20052;-53
2023/08/29 09:16:00;;;;;;;12.00;7.10;;;19.20;99.90;;;19.66;100.00;100582.31;5234614;28;20468;-52
2023/08/29 09:18:33;;;;;;;14.30;8.07;;;19.20;99.90;;;19.71;100.00;100581.41;5241898;28;20040;-52
2023/08/29 09:21:17;;;;;;;13.07;7.53;;;19.30;99.90;;;19.79;100.00;100590.16;5219010;28;20049;-51
2023/08/29 09:23:52;;;;;;;11.95;7.20;;;19.30;99.90;;;19.89;100.00;100583.06;5217987;28;20045;-51
2023/08/29 09:26:32;;;;;;;14.10;8.27;;;19.40;99.90;;;19.93;100.00;100581.25;5233572;28;20040;-53
2023/08/29 09:29:18;;;;;;;14.25;8.25;;;19.50;99.90;;;19.92;100.00;100580.38;5230275;28;20044;-52
2023/08/29 09:31:51;;;;;;;15.13;8.50;;;19.50;99.90;;;19.95;100.00;100582.09;5236616;28;20052;-53
2023/08/29 09:34:28;;;;;;;15.38;9.40;;;19.50;99.90;;;19.97;100.00;100594.44;5238107;28;20044;-52
2023/08/29 09:37:06;;;;;;;17.42;10.98;;;19.50;99.90;;;19.95;100.00;100590.03;5221390;28;20052;-50
2023/08/29 09:39:40;;;;;;;15.15;8.18;;;19.50;99.90;;;19.95;100.00;100584.75;5221866;28;20045;-50
2023/08/29 09:42:13;;;;;;;15.23;7.65;;;19.50;99.90;;;19.98;100.00;100585.63;5227195;28;20052;-51
2023/08/29 09:44:50;;;;;;;21.45;10.32;;;19.60;99.90;;;20.05;100.00;100586.47;5233691;28;20406;-50
2023/08/29 09:47:24;;;;;;;17.52;9.20;;;19.60;99.90;;;20.07;100.00;100584.66;5238379;28;20714;-50
2023/08/29 09:49:56;;;;;;;18.73;9.85;;;19.60;99.90;;;20.14;100.00;100580.22;5239469;28;20056;-51
2023/08/29 09:52:29;;;;;;;16.98;8.60;;;19.70;99.90;;;20.22;100.00;100586.34;5238964;28;20033;-51
2023/08/29 09:55:09;;;;;;;19.52;9.15;;;19.70;99.90;;;20.24;100.00;100576.63;5240942;28;20417;-52
2023/08/29 09:57:42;;;;;;;13.93;8.07;;;19.80;99.90;;;20.30;100.00;100581.84;5241091;28;20044;-48
2023/08/29 10:00:15;;;;;;;16.13;8.23;;;19.80;99.90;;;20.36;100.00;100570.34;5238220;28;20040;-52
2023/08/29 10:02:56;;;;;;;19.98;9.05;;;19.80;99.90;;;20.41;100.00;100574.72;5235528;28;20063;-52
2023/08/29 10:05:33;;;;;;;;;;;19.90;99.90;;;20.47;100.00;100573.78;5246500;28;20056;-53
2023/08/29 10:08:15;;;;;;;13.85;7.50;;;20.00;99.90;;;20.55;100.00;100567.53;5238039;28;19920;-51
2023/08/29 10:10:49;;;;;;;14.40;7.13;;;20.10;99.90;;;20.56;100.00;100565.78;5237430;28;20482;-48
2023/08/29 10:13:22;;;;;;;17.02;8.18;;;20.10;99.90;;;20.57;100.00;100564.88;5231035;28;20426;-48
2023/08/29 10:15:55;;;;;;;17.52;8.70;;;20.10;99.90;;;20.61;100.00;100565.75;5240617;28;20060;-47
2023/08/29 10:18:30;;;;;;;16.23;7.85;;;20.10;99.90;;;20.64;100.00;100566.56;5225186;28;20118;-48
2023/08/29 10:21:06;;;;;;;17.23;8.65;;;20.20;99.90;;;20.68;100.00;100563.00;5234179;28;20045;-47
2023/08/29 10:23:39;;;;;;;16.02;8.00;;;20.20;99.90;;;20.69;100.00;100564.75;5239693;28;20571;-48
2023/08/29 10:26:14;;;;;;;19.30;9.65;;;20.20;99.90;;;20.69;100.00;100564.75;5223819;28;20037;-48
2023/08/29 10:28:56;;;;;;;19.38;9.63;;;20.20;99.90;;;20.73;100.00;100561.16;5241049;28;20068;-48
2023/08/29 10:31:29;;;;;;;16.33;9.30;;;20.30;99.90;;;20.78;100.00;100561.13;5235821;28;20049;-48